Search for airport 
image banner adimage banner adimage banner ad
image banner ad

8CA4 - Sce Eastern Division

Located in San Bernardino, United States

ICAO - 8CA4, IATA -

Data provided by Airmate  

General information

Coordinates: N34°6'17" W117°21'6"
Elevation is 1205 feet MSL.
Magnetic variation is 14° East
View others Airports in California

Operational data

Special qualification required
Current time UTC:
Current local time:
Weather at : KSBD - San Bernardino Intl ( 11 km )
METAR: KSBD 211020Z AUTO 00000KT 10SM CLR 18/13 A2994 RMK AO2 T01840127
TAF: KSBD 210520Z 2106/2206 24005KT P6SM SKC FM212000 24011KT P6SM SKC FM220500 25005KT P6SM FEW150
View NOTAMs / SUP AIP / TFR affecting this airport [VIEW]
Communications frequencies: [VIEW]

Runways:

Airport contact information

Address: San Bernardino United States

Satellite view of 8CA4